createdAt,value
2023-03-07T00:00:24.767Z,53.6
2023-03-07T00:01:25.701Z,53.9
2023-03-07T00:02:26.819Z,54.1
2023-03-07T00:03:28.063Z,54.2
2023-03-07T00:04:28.922Z,54.2
2023-03-07T00:05:29.933Z,54.4
2023-03-07T00:06:30.874Z,54.6
2023-03-07T00:07:31.919Z,54.8
2023-03-07T00:08:33.019Z,55
2023-03-07T00:09:33.887Z,55.3
2023-03-07T00:10:34.984Z,55.6
2023-03-07T00:11:35.991Z,55.6
2023-03-07T00:12:36.660Z,55.8
2023-03-07T00:13:37.850Z,56
2023-03-07T00:14:38.825Z,56.2
2023-03-07T00:15:39.817Z,56.2
2023-03-07T00:16:40.787Z,56.3
2023-03-07T00:17:41.757Z,56.2
2023-03-07T00:18:42.785Z,56
2023-03-07T00:19:43.883Z,55.8
2023-03-07T00:20:44.716Z,55.9
2023-03-07T00:21:45.719Z,55.6
2023-03-07T00:22:46.793Z,55.7
2023-03-07T00:23:47.751Z,55.9
2023-03-07T00:24:48.751Z,55.8
2023-03-07T00:25:49.731Z,55.5
2023-03-07T00:26:50.750Z,55.6
2023-03-07T00:27:51.759Z,55.8
2023-03-07T00:28:52.819Z,55.9
2023-03-07T00:29:53.716Z,56
2023-03-07T00:30:54.764Z,56.1
2023-03-07T00:31:55.791Z,55.9
2023-03-07T00:32:56.790Z,55.9
2023-03-07T00:33:57.795Z,56
2023-03-07T00:34:58.700Z,56.1
2023-03-07T00:35:59.832Z,56.2
2023-03-07T00:37:00.759Z,55.6
2023-03-07T00:38:01.836Z,54.7
2023-03-07T00:39:02.798Z,54.8
2023-03-07T00:40:03.831Z,55
2023-03-07T00:41:04.896Z,55.1
2023-03-07T00:42:05.874Z,55.1
2023-03-07T00:43:06.824Z,55
2023-03-07T00:44:07.805Z,55
2023-03-07T00:45:08.748Z,55
2023-03-07T00:46:09.851Z,55
2023-03-07T00:47:10.719Z,55.1
2023-03-07T00:48:11.762Z,55
2023-03-07T00:49:12.821Z,54.9
2023-03-07T00:50:13.872Z,54.7
2023-03-07T00:51:14.845Z,54.3
2023-03-07T00:52:15.999Z,53.9
2023-03-07T00:53:17.000Z,53.8
2023-03-07T00:54:17.960Z,53.8
2023-03-07T00:55:18.887Z,53.8
2023-03-07T00:56:19.932Z,53.9
2023-03-07T00:57:20.910Z,53.6
2023-03-07T00:58:22.019Z,53.6
2023-03-07T00:59:22.803Z,53.5
2023-03-07T01:00:23.859Z,53.6
2023-03-07T01:01:24.900Z,53.7
2023-03-07T01:02:25.820Z,53.8
2023-03-07T01:03:26.804Z,53.8
2023-03-07T01:04:27.852Z,53.8
2023-03-07T01:05:28.801Z,53.9
2023-03-07T01:06:29.882Z,53.9
2023-03-07T01:07:30.741Z,53.9
2023-03-07T01:08:31.758Z,54
2023-03-07T01:09:32.815Z,53.9
2023-03-07T01:10:33.846Z,53.8
2023-03-07T01:11:34.836Z,53.8
2023-03-07T01:12:35.780Z,53.8
2023-03-07T01:13:36.877Z,53.8
2023-03-07T01:14:37.763Z,53.8
2023-03-07T01:15:38.841Z,53.7
2023-03-07T01:16:39.878Z,53.6
2023-03-07T01:17:40.780Z,53.8
2023-03-07T01:18:41.784Z,53.9
2023-03-07T01:19:42.759Z,53.8
2023-03-07T01:20:43.782Z,53.8
2023-03-07T01:21:44.763Z,53.9
2023-03-07T01:22:45.804Z,53.9
2023-03-07T01:23:46.762Z,53.9
2023-03-07T01:24:47.856Z,53.9
2023-03-07T01:25:48.823Z,53.9
2023-03-07T01:26:49.815Z,54
2023-03-07T01:27:50.880Z,54.2
2023-03-07T01:28:51.760Z,54.2
2023-03-07T01:29:52.802Z,54.3
2023-03-07T01:30:53.868Z,54.3
2023-03-07T01:31:54.834Z,54.4
2023-03-07T01:32:55.844Z,54.3
2023-03-07T01:33:56.843Z,54.4
2023-03-07T01:34:57.782Z,54.5
2023-03-07T01:35:58.824Z,54.4
2023-03-07T01:36:59.854Z,54.3
2023-03-07T01:38:00.841Z,54.4
2023-03-07T01:39:01.821Z,54.4
2023-03-07T01:40:02.868Z,54.4
2023-03-07T01:41:03.919Z,54.4
2023-03-07T01:42:05.067Z,54.5
2023-03-07T01:43:05.913Z,54.3
2023-03-07T01:44:06.819Z,54.2
2023-03-07T01:45:07.855Z,54.1
2023-03-07T01:46:08.829Z,54.1
2023-03-07T01:47:09.843Z,53.7
2023-03-07T01:48:10.828Z,53.9
2023-03-07T01:49:11.761Z,53.9
2023-03-07T01:50:12.870Z,53.9
2023-03-07T01:51:13.783Z,53.7
2023-03-07T01:52:14.926Z,53.3
2023-03-07T01:53:15.806Z,53.6
2023-03-07T01:54:16.849Z,53.7
2023-03-07T01:55:17.944Z,53.8
2023-03-07T01:56:19.003Z,53.8
2023-03-07T01:57:19.789Z,53.8
2023-03-07T01:58:20.864Z,53.8
2023-03-07T01:59:22.037Z,53.7
2023-03-07T02:00:22.936Z,53.7
2023-03-07T02:01:24.070Z,53.7
2023-03-07T02:02:24.901Z,54.3
2023-03-07T02:03:25.777Z,54.7
2023-03-07T02:06:10.359Z,55
2023-03-07T02:07:11.954Z,54.9
2023-03-07T02:08:12.975Z,54.8
2023-03-07T02:09:13.753Z,54.7
2023-03-07T02:10:14.833Z,54.8
2023-03-07T02:11:15.818Z,55
2023-03-07T02:12:16.803Z,54.8
2023-03-07T02:13:17.939Z,54.9
2023-03-07T02:14:18.967Z,54.8
2023-03-07T02:15:20.000Z,54.7
2023-03-07T02:16:21.059Z,55
2023-03-07T02:17:21.867Z,55.1
2023-03-07T02:18:22.899Z,55.1
2023-03-07T02:19:23.960Z,55.1
2023-03-07T02:20:25.079Z,55.2
2023-03-07T02:21:25.945Z,55.2
2023-03-07T02:22:26.895Z,55.2
2023-03-07T02:23:28.016Z,55
2023-03-07T02:24:28.946Z,55
2023-03-07T02:25:29.898Z,54.8
2023-03-07T02:26:30.991Z,54.7
2023-03-07T02:27:31.938Z,54.8
2023-03-07T02:28:33.033Z,54.8
2023-03-07T02:29:33.940Z,54.9
2023-03-07T02:30:35.001Z,55
2023-03-07T02:31:35.999Z,55
2023-03-07T02:32:37.050Z,55.2
2023-03-07T02:33:37.900Z,55.3
2023-03-07T02:34:38.990Z,54.8
2023-03-07T02:35:39.998Z,54.9
2023-03-07T02:36:41.021Z,55
2023-03-07T02:37:42.010Z,54.9
2023-03-07T02:38:42.907Z,54.8
2023-03-07T02:39:44.013Z,54.6
2023-03-07T02:40:44.957Z,54.4
2023-03-07T02:41:45.961Z,54.3
2023-03-07T02:42:46.891Z,54.3
2023-03-07T02:43:47.904Z,54.3
2023-03-07T02:44:49.005Z,54.4
2023-03-07T02:45:50.126Z,54.4
2023-03-07T02:46:50.964Z,54.1
2023-03-07T02:47:51.852Z,54.4
2023-03-07T02:48:52.943Z,54.4
2023-03-07T02:49:53.900Z,54.5
2023-03-07T02:50:55.006Z,54.5
2023-03-07T02:51:55.980Z,54.5
2023-03-07T02:52:56.972Z,54.4
2023-03-07T02:53:57.902Z,54.4
2023-03-07T02:54:58.903Z,54.3
2023-03-07T02:55:59.980Z,54.3
2023-03-07T02:57:00.954Z,54.4
2023-03-07T02:58:02.180Z,54.5
2023-03-07T02:59:03.245Z,54.5
2023-03-07T03:00:05.221Z,54.5
2023-03-07T03:01:07.142Z,54.4
2023-03-07T03:02:08.122Z,54.4
2023-03-07T03:03:09.003Z,54.5
2023-03-07T03:04:09.863Z,54
2023-03-07T03:05:10.891Z,54.7
2023-03-07T03:06:12.078Z,54.8
2023-03-07T03:07:13.172Z,54.7
2023-03-07T03:08:13.860Z,54.8
2023-03-07T03:09:14.869Z,54.8
2023-03-07T03:10:15.859Z,54.8
2023-03-07T03:11:16.851Z,55
2023-03-07T03:12:17.982Z,55
2023-03-07T03:13:19.201Z,55.2
2023-03-07T03:14:19.905Z,55.3
2023-03-07T03:15:20.821Z,55.3
2023-03-07T03:16:21.866Z,55.4
2023-03-07T03:17:22.861Z,55.6
2023-03-07T03:18:23.821Z,55.7
2023-03-07T03:19:24.868Z,55.9
2023-03-07T03:20:25.855Z,56.1
2023-03-07T03:21:26.882Z,56.2
2023-03-07T03:22:27.941Z,56.2
2023-03-07T03:23:28.849Z,56.5
2023-03-07T03:24:29.821Z,56.9
2023-03-07T03:25:30.882Z,57.3
2023-03-07T03:26:31.843Z,57.5
2023-03-07T03:27:32.863Z,57.5
2023-03-07T03:28:33.802Z,57.6
2023-03-07T03:29:34.850Z,57.8
2023-03-07T03:30:35.901Z,57.7
2023-03-07T03:31:36.936Z,57.6
2023-03-07T03:32:37.928Z,57.4
2023-03-07T03:33:38.842Z,57.4
2023-03-07T03:34:39.869Z,57.3
2023-03-07T03:35:40.897Z,57.2
2023-03-07T03:36:41.811Z,57.3
2023-03-07T03:37:42.961Z,57.2
2023-03-07T03:38:44.126Z,57.1
2023-03-07T03:39:44.860Z,57.1
2023-03-07T03:40:45.833Z,57.1
2023-03-07T03:41:46.840Z,57.1
2023-03-07T03:42:48.021Z,56.9
2023-03-07T03:43:48.750Z,56.8
2023-03-07T03:44:49.860Z,56.7
2023-03-07T03:45:50.921Z,56.5
2023-03-07T03:46:51.891Z,56.6
2023-03-07T03:47:52.859Z,56.7
2023-03-07T03:48:53.829Z,56.8
2023-03-07T03:49:54.860Z,56.9
2023-03-07T03:50:55.886Z,57
2023-03-07T03:51:56.884Z,56.6
2023-03-07T03:52:57.921Z,56.6
2023-03-07T03:53:58.920Z,56.8
2023-03-07T03:54:59.887Z,56.7
2023-03-07T03:56:00.821Z,56.6
2023-03-07T03:57:01.827Z,56.4
2023-03-07T03:58:02.880Z,56.6
2023-03-07T03:59:03.937Z,56.6
2023-03-07T04:00:04.983Z,56.6
2023-03-07T04:01:05.918Z,56.9
2023-03-07T04:02:07.091Z,57.2
2023-03-07T04:03:07.973Z,57.6
2023-03-07T04:04:08.830Z,57.7
2023-03-07T04:05:09.859Z,57.8
2023-03-07T04:06:11.020Z,57.2
2023-03-07T04:07:12.059Z,57.4
2023-03-07T04:08:12.848Z,57.3
2023-03-07T04:09:14.080Z,57.4
2023-03-07T04:10:14.858Z,57.3
2023-03-07T04:11:15.864Z,57.4
2023-03-07T04:12:16.897Z,57.6
2023-03-07T04:13:17.859Z,57.8
2023-03-07T04:14:19.127Z,58
2023-03-07T04:15:19.863Z,58.1
2023-03-07T04:16:20.879Z,58.1
2023-03-07T04:17:21.895Z,58
2023-03-07T04:18:22.893Z,57.9
2023-03-07T04:19:23.916Z,57.9
2023-03-07T04:20:25.061Z,57.8
2023-03-07T04:21:25.905Z,58.2
2023-03-07T04:22:26.875Z,58.3
2023-03-07T04:23:27.862Z,58
2023-03-07T04:24:28.837Z,58
2023-03-07T04:25:29.964Z,57.9
2023-03-07T04:26:30.860Z,57.9
2023-03-07T04:27:31.936Z,57.7
2023-03-07T04:28:33.069Z,57.6
2023-03-07T04:29:33.845Z,57.6
2023-03-07T04:30:34.880Z,58.2
2023-03-07T04:31:35.888Z,58.4
2023-03-07T04:32:36.973Z,58.5
2023-03-07T04:33:37.898Z,58.5
2023-03-07T04:34:38.854Z,58.6
2023-03-07T04:35:39.859Z,58.6
2023-03-07T04:36:40.861Z,58.7
2023-03-07T04:37:42.029Z,58.5
2023-03-07T04:38:43.076Z,58
2023-03-07T04:39:43.902Z,58.3
2023-03-07T04:40:44.895Z,58.4
2023-03-07T04:41:45.951Z,58.5
2023-03-07T04:42:46.903Z,58.4
2023-03-07T04:43:47.858Z,58.1
2023-03-07T04:44:48.923Z,57.8
2023-03-07T04:45:49.991Z,57.1
2023-03-07T04:46:50.896Z,57.2
2023-03-07T04:47:51.817Z,57.4
2023-03-07T04:48:52.912Z,57.5
2023-03-07T04:49:54.015Z,57.6
2023-03-07T04:50:54.937Z,57.7
2023-03-07T04:51:55.899Z,57.5
2023-03-07T04:52:56.923Z,57.2
2023-03-07T04:53:57.960Z,57.1
2023-03-07T04:54:58.855Z,57.3
2023-03-07T04:55:59.931Z,57.3
2023-03-07T04:57:00.916Z,57.2
2023-03-07T04:58:01.875Z,56.9
2023-03-07T04:59:02.936Z,56.7
2023-03-07T05:00:03.855Z,56.8
2023-03-07T05:01:05.319Z,56.7
2023-03-07T05:02:05.899Z,56.7
2023-03-07T05:03:06.876Z,56.8
2023-03-07T05:04:07.983Z,57
2023-03-07T05:05:09.045Z,57.3
2023-03-07T05:06:09.935Z,57.3
2023-03-07T05:07:11.058Z,57.3
2023-03-07T05:08:11.856Z,57.3
2023-03-07T05:09:12.943Z,57.2
2023-03-07T05:10:13.834Z,56.9
2023-03-07T05:11:14.975Z,56.6
2023-03-07T05:12:15.884Z,56.8
2023-03-07T05:13:16.866Z,56.8
2023-03-07T05:14:17.825Z,56.6
2023-03-07T05:15:19.436Z,56.6
2023-03-07T05:16:21.098Z,56.7
2023-03-07T05:17:22.035Z,56.8
2023-03-07T05:18:22.876Z,56.8
2023-03-07T05:19:23.915Z,56.7
2023-03-07T05:20:24.967Z,56.7
2023-03-07T05:21:25.875Z,56.6
2023-03-07T05:22:26.963Z,56.2
2023-03-07T05:23:27.978Z,56.4
2023-03-07T05:24:28.911Z,55.8
2023-03-07T05:25:32.794Z,56.2
2023-03-07T05:26:34.116Z,56.1
2023-03-07T05:27:34.900Z,55.9
2023-03-07T05:28:35.883Z,55.8
2023-03-07T05:29:36.905Z,55.4
2023-03-07T05:30:37.982Z,55.6
2023-03-07T05:31:38.939Z,55.6
2023-03-07T05:32:39.958Z,55.5
2023-03-07T05:33:41.015Z,55.4
2023-03-07T05:34:41.995Z,55.3
2023-03-07T05:35:43.034Z,55.2
2023-03-07T05:36:43.974Z,55.3
2023-03-07T05:37:44.899Z,55.2
2023-03-07T05:38:45.920Z,54.9
2023-03-07T05:39:46.917Z,54.9
2023-03-07T05:40:48.034Z,55
2023-03-07T05:41:49.100Z,55.1
2023-03-07T05:42:49.918Z,55
2023-03-07T05:43:50.917Z,55
2023-03-07T05:44:51.895Z,55.3
2023-03-07T05:45:53.044Z,55.4
2023-03-07T05:46:54.160Z,55.3
2023-03-07T05:47:55.060Z,55.2
2023-03-07T05:48:55.965Z,55.1
2023-03-07T05:49:56.935Z,55
2023-03-07T05:50:57.996Z,54.9
2023-03-07T05:51:58.936Z,54.8
2023-03-07T05:52:59.952Z,54.6
2023-03-07T05:54:00.998Z,54.1
2023-03-07T05:55:01.963Z,54.7
2023-03-07T05:56:03.080Z,54.5
2023-03-07T05:57:04.119Z,54.6
2023-03-07T05:58:05.118Z,54.4
2023-03-07T05:59:06.100Z,54.3
2023-03-07T06:00:06.975Z,54.3
2023-03-07T06:01:07.971Z,54.3
2023-03-07T06:02:09.005Z,54.2
2023-03-07T06:03:10.098Z,53.9
2023-03-07T06:04:11.017Z,53.8
2023-03-07T06:05:11.914Z,53.7
2023-03-07T06:06:12.896Z,53.5
2023-03-07T06:07:13.957Z,53.6
2023-03-07T06:08:14.897Z,54
2023-03-07T06:09:15.943Z,54.4
2023-03-07T06:10:16.938Z,54.5
2023-03-07T06:11:17.893Z,54.3
2023-03-07T06:12:18.900Z,54.4
2023-03-07T06:13:20.308Z,54.6
2023-03-07T06:14:21.060Z,54.8
2023-03-07T06:15:23.721Z,54.9
2023-03-07T06:16:22.997Z,55.1
2023-03-07T06:17:23.999Z,55.2
2023-03-07T06:18:24.893Z,55.1
2023-03-07T06:19:25.918Z,54.8
2023-03-07T06:20:26.976Z,54.6
2023-03-07T06:21:27.898Z,54.6
2023-03-07T06:22:29.004Z,54.6
2023-03-07T06:23:29.920Z,54.5
2023-03-07T06:24:31.040Z,54.5
2023-03-07T06:25:31.896Z,54.6
2023-03-07T06:26:32.878Z,54.7
2023-03-07T06:27:33.924Z,54.7
2023-03-07T06:28:34.907Z,54.2
2023-03-07T06:29:35.955Z,54.3
2023-03-07T06:30:36.904Z,54.2
2023-03-07T06:31:38.229Z,53.8
2023-03-07T06:32:39.121Z,54.2
2023-03-07T06:33:40.037Z,54.5
2023-03-07T06:34:40.916Z,54.4
2023-03-07T06:35:41.903Z,54.2
2023-03-07T06:36:42.977Z,53.9
2023-03-07T06:37:44.003Z,53.8
2023-03-07T06:38:44.959Z,53.9
2023-03-07T06:39:45.952Z,53.6
2023-03-07T06:40:47.004Z,53.3
2023-03-07T06:41:47.892Z,53.2
2023-03-07T06:42:48.937Z,53.4
2023-03-07T06:43:49.960Z,53.5
2023-03-07T06:44:51.050Z,53.7
2023-03-07T06:45:52.072Z,53.8
2023-03-07T06:46:53.001Z,53.9
2023-03-07T06:47:54.083Z,54
2023-03-07T06:48:55.045Z,53.9
2023-03-07T06:49:55.997Z,53.7
2023-03-07T06:50:56.907Z,53.3
2023-03-07T06:51:58.039Z,53.3
2023-03-07T06:52:58.906Z,53.5
2023-03-07T06:54:00.044Z,53.5
2023-03-07T06:55:00.978Z,53.4
2023-03-07T06:56:01.872Z,53.1
2023-03-07T06:57:02.937Z,52.7
2023-03-07T06:58:04.059Z,52.5
2023-03-07T06:59:05.006Z,52.4
2023-03-07T07:00:06.029Z,52.4
2023-03-07T07:01:07.043Z,52.2
2023-03-07T07:02:08.083Z,51.9
2023-03-07T07:03:09.020Z,51.9
2023-03-07T07:04:09.997Z,52
2023-03-07T07:05:11.128Z,52.1
2023-03-07T07:06:11.900Z,52
2023-03-07T07:07:13.051Z,52.3
2023-03-07T07:08:13.958Z,52.3
2023-03-07T07:09:15.013Z,52.6
2023-03-07T07:10:16.133Z,52.8
2023-03-07T07:11:17.052Z,52.6
2023-03-07T07:12:18.015Z,52.6
2023-03-07T07:13:18.956Z,52.5
2023-03-07T07:14:20.376Z,52.5
2023-03-07T07:15:22.082Z,51.8
2023-03-07T07:16:22.978Z,51.1
2023-03-07T07:17:23.990Z,50.7
2023-03-07T07:18:25.104Z,50.5
2023-03-07T07:19:26.030Z,50.6
2023-03-07T07:20:26.972Z,50.5
2023-03-07T07:21:27.921Z,50.8
2023-03-07T07:22:28.992Z,50.9
2023-03-07T07:23:29.970Z,50.8
2023-03-07T07:24:30.965Z,50.8
2023-03-07T07:25:31.943Z,51
2023-03-07T07:26:32.956Z,51.2
2023-03-07T07:27:33.900Z,51.5
2023-03-07T07:28:34.909Z,51.4
2023-03-07T07:29:35.989Z,51.5
2023-03-07T07:30:36.963Z,51.5
2023-03-07T07:31:38.350Z,51.5
2023-03-07T07:32:39.256Z,51.1
2023-03-07T07:33:39.962Z,50.8
2023-03-07T07:34:40.994Z,50.8
2023-03-07T07:35:42.058Z,50.7
2023-03-07T07:36:42.976Z,50.6
2023-03-07T07:37:43.997Z,50.4
2023-03-07T07:38:45.075Z,50.3
2023-03-07T07:39:45.954Z,50.5
2023-03-07T07:40:46.988Z,50.5
2023-03-07T07:41:48.045Z,50.3
2023-03-07T07:42:48.941Z,50.4
2023-03-07T07:43:50.046Z,50.2
2023-03-07T07:44:50.999Z,50.1
2023-03-07T07:45:52.056Z,50.1
2023-03-07T07:46:53.041Z,50.1
2023-03-07T07:47:53.993Z,50.1
2023-03-07T07:48:54.958Z,50.2
2023-03-07T07:49:56.040Z,50.1
2023-03-07T07:50:57.028Z,49.9
2023-03-07T07:51:57.988Z,50.3
2023-03-07T07:52:59.001Z,49.6
2023-03-07T07:53:59.941Z,49.5
2023-03-07T07:55:00.984Z,49.5
2023-03-07T07:56:01.967Z,49.6
2023-03-07T07:57:03.071Z,49.6
2023-03-07T07:58:04.038Z,49.5
2023-03-07T07:59:05.068Z,49.6
2023-03-07T08:00:05.948Z,49.9
2023-03-07T08:01:06.962Z,49.9
2023-03-07T08:02:08.142Z,49.3
2023-03-07T08:03:09.117Z,49
2023-03-07T08:04:09.947Z,49.6
2023-03-07T08:05:11.098Z,49.2
2023-03-07T08:06:12.241Z,49.5
2023-03-07T08:07:12.944Z,48.7
2023-03-07T08:08:13.943Z,48.4
2023-03-07T08:09:14.943Z,48.7
2023-03-07T08:10:16.031Z,49
2023-03-07T08:11:17.222Z,49
2023-03-07T08:12:18.009Z,48.4
2023-03-07T08:13:19.004Z,48.6
2023-03-07T08:14:20.387Z,49.1
2023-03-07T08:15:20.969Z,49.5
2023-03-07T08:16:22.036Z,49.6
2023-03-07T08:17:22.977Z,49.8
2023-03-07T08:18:24.031Z,49
2023-03-07T08:19:25.090Z,48.3
2023-03-07T08:20:26.232Z,48.6
2023-03-07T08:21:27.067Z,48.2
2023-03-07T08:22:27.975Z,47.7
2023-03-07T08:23:29.053Z,47.7
2023-03-07T08:24:40.139Z,47.7
2023-03-07T08:25:30.964Z,48
2023-03-07T08:26:32.066Z,47.7
2023-03-07T08:27:33.025Z,47.9
2023-03-07T08:28:33.973Z,47.9
2023-03-07T08:29:35.041Z,47.2
2023-03-07T08:30:36.089Z,47.3
2023-03-07T08:31:37.014Z,46.8
2023-03-07T08:32:38.165Z,47
2023-03-07T08:33:39.044Z,47.3
2023-03-07T08:34:40.079Z,47.2
2023-03-07T08:35:41.054Z,47.2
2023-03-07T08:36:42.015Z,47.2
2023-03-07T08:37:43.010Z,47.7
2023-03-07T08:38:44.122Z,47.5
2023-03-07T08:39:45.006Z,48
2023-03-07T08:40:45.986Z,47.5
2023-03-07T08:41:47.019Z,47
2023-03-07T08:42:47.989Z,46.8
2023-03-07T08:43:49.014Z,47
2023-03-07T08:44:50.094Z,46.5
2023-03-07T08:45:51.010Z,46.5
2023-03-07T08:46:52.014Z,46.1
2023-03-07T08:47:53.327Z,46.6
2023-03-07T08:48:54.046Z,46.2
2023-03-07T08:49:55.003Z,46.7
2023-03-07T08:50:55.996Z,45.6
2023-03-07T08:51:57.025Z,45.1
2023-03-07T08:52:58.113Z,44.1
2023-03-07T08:53:58.947Z,43.9
2023-03-07T08:55:00.093Z,43.5
2023-03-07T08:56:01.036Z,44.5
2023-03-07T08:57:02.061Z,45
2023-03-07T08:58:03.164Z,44.6
2023-03-07T08:59:04.098Z,44.1
2023-03-07T09:00:05.106Z,44.2
2023-03-07T09:01:06.042Z,44.5
2023-03-07T09:02:07.135Z,44.2
2023-03-07T09:03:08.003Z,44
2023-03-07T09:04:09.071Z,44
2023-03-07T09:05:10.149Z,43.6
2023-03-07T09:06:11.120Z,43.6
2023-03-07T09:07:12.082Z,43.4
2023-03-07T09:08:12.978Z,42.7
2023-03-07T09:09:14.086Z,42.3
2023-03-07T09:10:15.060Z,42.9
2023-03-07T09:11:16.038Z,42.6
2023-03-07T09:12:17.046Z,42.9
2023-03-07T09:13:18.427Z,41.8
2023-03-07T09:14:19.043Z,41.7
2023-03-07T09:15:20.207Z,42.1
2023-03-07T09:16:21.388Z,42.7
2023-03-07T09:17:21.969Z,42.8
2023-03-07T09:18:23.043Z,42.2
2023-03-07T09:19:27.198Z,41.3
2023-03-07T09:20:28.100Z,40.8
2023-03-07T09:21:29.033Z,41
2023-03-07T09:22:29.998Z,41.2
2023-03-07T09:23:31.058Z,41.4
2023-03-07T09:24:32.026Z,41.3
2023-03-07T09:25:33.060Z,41.3
2023-03-07T09:26:34.024Z,41.8
2023-03-07T09:27:34.997Z,42
2023-03-07T09:28:36.049Z,41.8
2023-03-07T09:29:37.007Z,42
2023-03-07T09:30:38.171Z,42.4
2023-03-07T09:31:39.157Z,42.4
2023-03-07T09:32:40.122Z,42.6
2023-03-07T09:33:41.007Z,42.8
2023-03-07T09:34:42.069Z,42.7
2023-03-07T09:35:43.148Z,42.6
2023-03-07T09:36:44.172Z,42.7
2023-03-07T09:37:45.163Z,42.7
2023-03-07T09:38:46.145Z,42.8
2023-03-07T09:39:47.204Z,42.8
2023-03-07T09:40:48.064Z,43
2023-03-07T09:41:49.066Z,43
2023-03-07T09:42:50.055Z,42.8
2023-03-07T09:43:51.187Z,41.9
2023-03-07T09:44:52.093Z,42.2
2023-03-07T09:45:53.074Z,42.3
2023-03-07T09:46:54.119Z,41.7
2023-03-07T09:47:55.104Z,41.7
2023-03-07T09:48:55.995Z,41.8
2023-03-07T09:49:57.145Z,41.7
2023-03-07T09:50:59.307Z,42.1
2023-03-07T09:51:59.046Z,42.4
2023-03-07T09:53:00.069Z,42.3
2023-03-07T09:54:01.070Z,42.1
2023-03-07T09:55:02.104Z,42.1
2023-03-07T09:56:03.285Z,42
2023-03-07T09:57:04.054Z,42.1
2023-03-07T09:58:05.129Z,42
2023-03-07T09:59:17.075Z,42.1
2023-03-07T10:00:07.107Z,41.8
2023-03-07T10:01:08.054Z,41.7
2023-03-07T10:02:09.081Z,41.6
2023-03-07T10:03:10.114Z,42
2023-03-07T10:04:11.105Z,41.9
2023-03-07T10:05:11.984Z,41.8
2023-03-07T10:06:13.261Z,41.8
2023-03-07T10:07:14.051Z,42.4
2023-03-07T10:08:15.090Z,42.4
2023-03-07T10:09:16.126Z,42.2
2023-03-07T10:10:17.086Z,42.1
2023-03-07T10:11:18.059Z,41.7
2023-03-07T10:12:19.092Z,41.5
2023-03-07T10:13:20.234Z,41.7
2023-03-07T10:14:21.212Z,42.2
2023-03-07T10:15:22.086Z,41.8
2023-03-07T10:16:23.116Z,41.6
2023-03-07T10:17:24.140Z,42.3
2023-03-07T10:18:25.128Z,42.3
2023-03-07T10:19:26.067Z,41.3
2023-03-07T10:20:27.042Z,41.2
2023-03-07T10:21:28.284Z,41.3
2023-03-07T10:22:29.052Z,41
2023-03-07T10:23:30.034Z,41.2
2023-03-07T10:24:31.106Z,41.2
2023-03-07T10:25:32.069Z,41.4
2023-03-07T10:26:33.029Z,41.6
2023-03-07T10:27:34.027Z,41.8
2023-03-07T10:28:35.005Z,41.9
2023-03-07T10:29:36.094Z,42
2023-03-07T10:30:37.032Z,42.2
2023-03-07T10:31:38.176Z,41.7
2023-03-07T10:32:39.049Z,41
2023-03-07T10:33:40.320Z,41
2023-03-07T10:34:41.046Z,41.2
2023-03-07T10:35:42.195Z,41.5
2023-03-07T10:36:43.104Z,41.4
2023-03-07T10:37:44.040Z,41.5
2023-03-07T10:38:45.053Z,41.9
2023-03-07T10:39:46.071Z,42.2
2023-03-07T10:40:47.103Z,42.1
2023-03-07T10:41:48.081Z,42.7
2023-03-07T10:42:49.249Z,41.8
2023-03-07T10:43:50.056Z,41.4
2023-03-07T10:44:51.110Z,40.7
2023-03-07T10:45:52.330Z,40.4
2023-03-07T10:46:55.986Z,40
2023-03-07T10:47:54.026Z,40.5
2023-03-07T10:48:55.064Z,41
2023-03-07T10:49:56.105Z,41.3
2023-03-07T10:50:57.098Z,40.8
2023-03-07T10:51:58.117Z,41.1
2023-03-07T10:52:59.079Z,41.2
2023-03-07T10:54:00.117Z,41.1
2023-03-07T10:55:01.100Z,41.1
2023-03-07T10:56:02.244Z,41
2023-03-07T10:57:03.099Z,41.7
2023-03-07T10:58:04.086Z,41.3
2023-03-07T10:59:05.050Z,41.3
2023-03-07T11:00:05.958Z,41.5
2023-03-07T11:01:07.153Z,42.1
2023-03-07T11:02:08.098Z,42.1
2023-03-07T11:03:09.108Z,42.4
2023-03-07T11:04:10.097Z,42.3
2023-03-07T11:05:11.157Z,41.9
2023-03-07T11:06:12.060Z,41.2
2023-03-07T11:07:13.097Z,40.7
2023-03-07T11:08:14.122Z,40.6
2023-03-07T11:09:15.045Z,41
2023-03-07T11:10:16.020Z,41.2
2023-03-07T11:11:17.079Z,40.9
2023-03-07T11:12:18.121Z,40.7
2023-03-07T11:13:19.050Z,40.5
2023-03-07T11:14:20.037Z,40.8
2023-03-07T11:15:21.558Z,40.7
2023-03-07T11:16:23.219Z,40.9
2023-03-07T11:17:24.116Z,40.7
2023-03-07T11:18:25.104Z,40.6
2023-03-07T11:19:26.065Z,41
2023-03-07T11:20:29.233Z,40.8
2023-03-07T11:21:28.034Z,40.2
2023-03-07T11:22:29.280Z,40.6
2023-03-07T11:23:30.076Z,40.7
2023-03-07T11:24:31.059Z,40.7
2023-03-07T11:25:32.075Z,40.5
2023-03-07T11:26:33.147Z,40.4
2023-03-07T11:27:34.096Z,40.6
2023-03-07T11:28:35.035Z,40.7
2023-03-07T11:29:36.083Z,41.1
2023-03-07T11:30:37.119Z,41
2023-03-07T11:31:38.238Z,40.7
2023-03-07T11:32:39.381Z,40.7
2023-03-07T11:33:49.608Z,40.7
2023-03-07T11:34:41.082Z,40
2023-03-07T11:35:42.190Z,40.6
2023-03-07T11:36:43.095Z,40.7
2023-03-07T11:37:44.224Z,40.7
2023-03-07T11:38:45.125Z,40.6
2023-03-07T11:39:46.043Z,41
2023-03-07T11:40:47.087Z,41
2023-03-07T11:41:48.136Z,40.7
2023-03-07T11:42:49.096Z,40.8
2023-03-07T11:43:50.066Z,40.9
2023-03-07T11:44:51.136Z,41.2
2023-03-07T11:45:52.222Z,41.2
2023-03-07T11:46:53.171Z,40.8
2023-03-07T11:47:54.137Z,40.9
2023-03-07T11:48:55.098Z,40.7
2023-03-07T11:50:04.375Z,40.9
2023-03-07T11:51:05.144Z,41.2
2023-03-07T11:52:06.104Z,41.2
2023-03-07T11:53:13.144Z,40.9
2023-03-07T11:54:14.116Z,41.3
2023-03-07T11:55:15.060Z,40.9
2023-03-07T11:56:16.048Z,40.8
2023-03-07T11:57:17.120Z,40.7
2023-03-07T11:58:18.108Z,41.1
2023-03-07T11:59:19.100Z,41.6
2023-03-07T12:00:20.185Z,41.6
2023-03-07T12:01:21.423Z,41.1
2023-03-07T12:02:22.108Z,40.9
2023-03-07T12:03:23.102Z,40.7
2023-03-07T12:04:24.116Z,40.8
2023-03-07T12:05:25.105Z,40.8
2023-03-07T12:06:26.064Z,40.6
2023-03-07T12:07:27.044Z,40.5
2023-03-07T12:08:28.205Z,39.9
2023-03-07T12:09:29.268Z,40.5
2023-03-07T12:10:30.284Z,41.2
2023-03-07T12:11:31.165Z,41.5
2023-03-07T12:12:32.066Z,41.8
2023-03-07T12:13:33.085Z,41.5
2023-03-07T12:14:34.092Z,41.9
2023-03-07T12:15:35.132Z,41.4
2023-03-07T12:16:36.218Z,41.4
2023-03-07T12:17:37.094Z,40.9
2023-03-07T12:18:38.031Z,40.8
2023-03-07T12:19:39.168Z,40.7
2023-03-07T12:20:40.146Z,40.6
2023-03-07T12:21:41.057Z,40.6
2023-03-07T12:22:42.104Z,40.7
2023-03-07T12:23:43.316Z,40.6
2023-03-07T12:24:44.369Z,40.6
2023-03-07T12:25:45.152Z,40.6
2023-03-07T12:26:46.113Z,40.7
2023-03-07T12:27:47.186Z,40.5
2023-03-07T12:28:48.137Z,40.6
2023-03-07T12:29:49.092Z,40.4
2023-03-07T12:30:50.077Z,40.2
2023-03-07T12:31:51.305Z,40.5
2023-03-07T12:32:52.338Z,40.6
2023-03-07T12:33:53.254Z,40.4
2023-03-07T12:34:54.313Z,40.5
2023-03-07T12:35:55.432Z,40.8
2023-03-07T12:36:56.246Z,40.9
2023-03-07T12:37:57.284Z,40.6
2023-03-07T12:38:58.292Z,40.6
2023-03-07T12:39:59.347Z,40.6
2023-03-07T12:41:00.251Z,40.6
2023-03-07T12:42:01.287Z,40.5
2023-03-07T12:43:02.249Z,40.6
2023-03-07T12:44:03.226Z,40.7
2023-03-07T12:45:04.317Z,40.7
2023-03-07T12:46:05.399Z,40.7
2023-03-07T12:47:06.155Z,40.8
2023-03-07T12:48:07.156Z,40.6
2023-03-07T12:49:08.127Z,40.6
2023-03-07T12:50:09.271Z,40.6
2023-03-07T12:51:10.087Z,40.5
2023-03-07T12:52:11.160Z,40.2
2023-03-07T12:53:12.171Z,39.5
2023-03-07T12:54:13.229Z,40.2
2023-03-07T12:55:14.267Z,39.5
2023-03-07T12:56:15.090Z,40.2
2023-03-07T12:57:16.158Z,40.4
2023-03-07T12:58:17.287Z,40
2023-03-07T12:59:18.172Z,40.2
2023-03-07T13:00:19.127Z,40.1
2023-03-07T13:01:20.213Z,40.6
2023-03-07T13:02:21.589Z,41.1
2023-03-07T13:03:23.114Z,40.9
2023-03-07T13:04:24.279Z,41
2023-03-07T13:05:25.184Z,41.1
2023-03-07T13:06:26.163Z,41.2
2023-03-07T13:07:27.151Z,41
2023-03-07T13:08:28.157Z,40.8
2023-03-07T13:09:29.369Z,40.8
2023-03-07T13:10:30.970Z,40.8
2023-03-07T13:11:32.241Z,40.8
2023-03-07T13:12:33.310Z,40.7
2023-03-07T13:13:34.264Z,40.5
2023-03-07T13:14:35.163Z,40.4
2023-03-07T13:15:36.140Z,40.4
2023-03-07T13:16:37.200Z,40.4
2023-03-07T13:17:38.119Z,40.4
2023-03-07T13:18:39.078Z,40.6
2023-03-07T13:19:40.141Z,40.1
2023-03-07T13:20:41.119Z,40.6
2023-03-07T13:21:42.209Z,40.8
2023-03-07T13:22:43.288Z,40.8
2023-03-07T13:23:44.161Z,40.8
2023-03-07T13:24:45.342Z,40.8
2023-03-07T13:25:46.079Z,40.3
2023-03-07T13:26:47.119Z,40.4
2023-03-07T13:27:48.339Z,40.4
2023-03-07T13:28:49.073Z,40.2
2023-03-07T13:29:50.295Z,40.8
2023-03-07T13:30:51.304Z,40.3
2023-03-07T13:31:52.071Z,40.1
2023-03-07T13:32:53.188Z,40.1
2023-03-07T13:33:54.321Z,40.1
2023-03-07T13:34:55.184Z,40.2
2023-03-07T13:35:56.434Z,39.4
2023-03-07T13:36:57.232Z,39.7
2023-03-07T13:37:58.131Z,40.4
2023-03-07T13:38:59.838Z,40.6